createdAt,value
2019-04-07T00:00:07.422Z,21.17
2019-04-07T00:01:06.969Z,21.21
2019-04-07T00:02:07.420Z,21.19
2019-04-07T00:03:06.981Z,21.15
2019-04-07T00:04:06.951Z,21.12
2019-04-07T00:05:12.201Z,21.11
2019-04-07T00:06:08.933Z,21.25
2019-04-07T00:07:06.928Z,21.17
2019-04-07T00:08:06.922Z,21.13
2019-04-07T00:09:07.098Z,21.24
2019-04-07T00:10:07.163Z,21.17
2019-04-07T00:11:06.900Z,21.12
2019-04-07T00:12:07.099Z,21.15
2019-04-07T00:13:07.125Z,21.17
2019-04-07T00:14:07.100Z,21.13
2019-04-07T00:15:07.001Z,21.13
2019-04-07T00:16:07.209Z,21.19
2019-04-07T00:17:06.881Z,21.15
2019-04-07T00:18:06.873Z,21.19
2019-04-07T00:19:06.868Z,21.17
2019-04-07T00:20:07.316Z,21.15
2019-04-07T00:21:06.858Z,21.19
2019-04-07T00:22:06.879Z,21.15
2019-04-07T00:23:06.855Z,21.12
2019-04-07T00:24:06.848Z,21.19
2019-04-07T00:25:06.840Z,21.13
2019-04-07T00:26:06.834Z,21.15
2019-04-07T00:27:06.953Z,21.11
2019-04-07T00:28:06.821Z,21.25
2019-04-07T00:29:06.816Z,21.11
2019-04-07T00:30:06.809Z,21.22
2019-04-07T00:31:06.802Z,21.13
2019-04-07T00:32:06.803Z,21.12
2019-04-07T00:33:06.787Z,21.11
2019-04-07T00:34:07.023Z,21.15
2019-04-07T00:35:06.772Z,21.09
2019-04-07T00:36:07.359Z,21.13
2019-04-07T00:37:07.336Z,21.17
2019-04-07T00:38:07.406Z,21.05
2019-04-07T00:39:06.879Z,21.15
2019-04-07T00:40:07.028Z,21.03
2019-04-07T00:41:06.859Z,21.12
2019-04-07T00:42:07.195Z,20.98
2019-04-07T00:43:06.741Z,21.13
2019-04-07T00:44:07.111Z,21.13
2019-04-07T00:45:06.729Z,21.05
2019-04-07T00:46:06.726Z,21.03
2019-04-07T00:47:07.374Z,21.11
2019-04-07T00:48:06.916Z,21.12
2019-04-07T00:49:06.704Z,21.08
2019-04-07T00:50:06.698Z,21.17
2019-04-07T00:51:06.689Z,21.12
2019-04-07T00:52:07.105Z,21.17
2019-04-07T00:53:06.675Z,21.06
2019-04-07T00:54:07.285Z,21.08
2019-04-07T00:55:06.683Z,21.02
2019-04-07T00:56:06.697Z,21.06
2019-04-07T00:57:06.682Z,21.12
2019-04-07T00:58:07.130Z,21.09
2019-04-07T00:59:06.665Z,21.03
2019-04-07T01:00:07.079Z,21.19
2019-04-07T01:01:06.649Z,21.05
2019-04-07T01:02:06.954Z,21.03
2019-04-07T01:03:07.260Z,21.09
2019-04-07T01:04:06.627Z,21.06
2019-04-07T01:05:07.248Z,21.09
2019-04-07T01:06:06.617Z,21.11
2019-04-07T01:07:06.608Z,21.08
2019-04-07T01:08:06.604Z,21.05
2019-04-07T01:09:07.012Z,21.08
2019-04-07T01:10:06.602Z,21.11
2019-04-07T01:11:06.597Z,21.09
2019-04-07T01:12:07.209Z,21.11
2019-04-07T01:13:06.584Z,21.15
2019-04-07T01:14:07.023Z,21.09
2019-04-07T01:15:06.566Z,21.06
2019-04-07T01:16:06.688Z,21.02
2019-04-07T01:17:07.108Z,21.09
2019-04-07T01:18:06.547Z,21.12
2019-04-07T01:19:06.677Z,21.06
2019-04-07T01:20:06.533Z,21.08
2019-04-07T01:21:07.307Z,21.08
2019-04-07T01:22:06.532Z,21.05
2019-04-07T01:23:07.026Z,21.12
2019-04-07T01:24:07.227Z,21.11
2019-04-07T01:25:07.096Z,21.03
2019-04-07T01:26:06.507Z,21.05
2019-04-07T01:27:06.616Z,21.12
2019-04-07T01:28:06.681Z,21.00
2019-04-07T01:29:06.472Z,21.00
2019-04-07T01:30:07.126Z,20.96
2019-04-07T01:31:07.131Z,21.08
2019-04-07T01:32:07.126Z,21.05
2019-04-07T01:33:06.485Z,21.03
2019-04-07T01:34:06.436Z,21.00
2019-04-07T01:35:07.005Z,21.09
2019-04-07T01:36:06.448Z,20.98
2019-04-07T01:37:06.418Z,21.05
2019-04-07T01:38:07.128Z,21.08
2019-04-07T01:39:06.458Z,20.96
2019-04-07T01:40:06.398Z,21.03
2019-04-07T01:41:06.389Z,21.05
2019-04-07T01:42:06.558Z,21.03
2019-04-07T01:43:06.520Z,20.98
2019-04-07T01:44:06.373Z,21.06
2019-04-07T01:45:06.362Z,21.03
2019-04-07T01:46:06.433Z,20.94
2019-04-07T01:47:06.353Z,21.02
2019-04-07T01:48:06.343Z,20.97
2019-04-07T01:49:08.052Z,21.00
2019-04-07T01:50:06.573Z,20.97
2019-04-07T01:51:06.325Z,20.91
2019-04-07T01:52:06.326Z,21.05
2019-04-07T01:53:06.705Z,20.98
2019-04-07T01:54:06.430Z,20.93
2019-04-07T01:55:06.434Z,21.03
2019-04-07T01:56:06.472Z,20.98
2019-04-07T01:57:06.310Z,21.02
2019-04-07T01:58:06.298Z,21.00
2019-04-07T01:59:06.704Z,21.00
2019-04-07T02:00:06.282Z,20.98
2019-04-07T02:01:06.565Z,20.98
2019-04-07T02:02:06.275Z,21.03
2019-04-07T02:03:06.413Z,20.91
2019-04-07T02:04:06.784Z,21.05
2019-04-07T02:05:06.741Z,20.90
2019-04-07T02:06:06.881Z,21.03
2019-04-07T02:07:06.257Z,20.97
2019-04-07T02:08:06.653Z,21.03
2019-04-07T02:09:06.241Z,21.08
2019-04-07T02:10:06.236Z,20.98
2019-04-07T02:11:06.229Z,20.91
2019-04-07T02:12:06.915Z,20.98
2019-04-07T02:13:06.214Z,20.97
2019-04-07T02:14:07.019Z,20.93
2019-04-07T02:15:06.342Z,20.98
2019-04-07T02:16:06.197Z,20.98
2019-04-07T02:17:06.488Z,20.96
2019-04-07T02:18:06.187Z,20.94
2019-04-07T02:19:06.261Z,20.97
2019-04-07T02:20:06.795Z,20.96
2019-04-07T02:21:06.334Z,21.00
2019-04-07T02:22:06.926Z,21.02
2019-04-07T02:23:06.321Z,20.98
2019-04-07T02:24:06.165Z,20.98
2019-04-07T02:25:06.395Z,20.94
2019-04-07T02:26:06.151Z,21.00
2019-04-07T02:27:06.147Z,20.97
2019-04-07T02:28:06.435Z,20.97
2019-04-07T02:29:06.662Z,20.94
2019-04-07T02:30:06.180Z,20.94
2019-04-07T02:31:06.251Z,20.90
2019-04-07T02:32:06.277Z,20.94
2019-04-07T02:33:06.259Z,21.06
2019-04-07T02:34:07.096Z,20.94
2019-04-07T02:35:06.136Z,20.96
2019-04-07T02:36:17.891Z,20.88
2019-04-07T02:37:33.895Z,20.94
2019-04-07T02:38:34.553Z,20.96
2019-04-07T02:39:34.683Z,20.96
2019-04-07T02:40:34.305Z,21.00
2019-04-07T02:41:34.531Z,20.98
2019-04-07T02:42:34.314Z,20.90
2019-04-07T02:43:34.087Z,20.87
2019-04-07T02:44:33.854Z,20.86
2019-04-07T02:45:34.578Z,20.87
2019-04-07T02:46:33.834Z,20.93
2019-04-07T02:47:33.831Z,20.93
2019-04-07T02:48:34.016Z,20.98
2019-04-07T02:49:33.943Z,20.87
2019-04-07T02:50:34.887Z,20.97
2019-04-07T02:51:33.910Z,20.93
2019-04-07T02:52:33.793Z,20.88
2019-04-07T02:53:33.785Z,20.94
2019-04-07T02:54:34.590Z,20.93
2019-04-07T02:55:33.771Z,20.86
2019-04-07T02:56:33.898Z,20.98
2019-04-07T02:57:33.928Z,20.94
2019-04-07T02:58:33.749Z,20.94
2019-04-07T02:59:33.745Z,20.94
2019-04-07T03:00:33.789Z,20.93
2019-04-07T03:01:33.736Z,20.88
2019-04-07T03:02:34.562Z,20.96
2019-04-07T03:03:34.361Z,20.88
2019-04-07T03:04:33.713Z,20.88
2019-04-07T03:05:33.707Z,20.88
2019-04-07T03:06:42.996Z,20.94
2019-04-07T03:08:01.665Z,20.97
2019-04-07T03:09:01.734Z,20.91
2019-04-07T03:10:02.698Z,20.96
2019-04-07T03:11:02.074Z,20.90
2019-04-07T03:12:01.687Z,20.84
2019-04-07T03:13:01.422Z,20.83
2019-04-07T03:14:01.408Z,20.91
2019-04-07T03:15:01.422Z,20.90
2019-04-07T03:16:02.059Z,20.93
2019-04-07T03:17:02.330Z,20.93
2019-04-07T03:18:01.397Z,20.88
2019-04-07T03:19:01.906Z,20.93
2019-04-07T03:20:01.380Z,20.88
2019-04-07T03:21:02.322Z,20.93
2019-04-07T03:22:01.366Z,20.86
2019-04-07T03:23:02.139Z,20.87
2019-04-07T03:24:01.362Z,20.88
2019-04-07T03:25:01.366Z,20.91
2019-04-07T03:26:02.219Z,20.90
2019-04-07T03:27:01.331Z,20.86
2019-04-07T03:28:01.331Z,20.84
2019-04-07T03:29:01.440Z,20.84
2019-04-07T03:30:01.690Z,20.88
2019-04-07T03:31:02.202Z,20.88
2019-04-07T03:32:02.971Z,20.86
2019-04-07T03:33:05.274Z,20.84
2019-04-07T03:34:03.819Z,20.88
2019-04-07T03:35:03.143Z,20.86
2019-04-07T03:36:03.452Z,20.86
2019-04-07T03:37:19.165Z,20.91
2019-04-07T03:38:03.273Z,20.91
2019-04-07T03:39:01.984Z,20.90
2019-04-07T03:40:02.586Z,20.83
2019-04-07T03:41:01.390Z,20.87
2019-04-07T03:42:01.245Z,20.91
2019-04-07T03:43:01.637Z,20.90
2019-04-07T03:44:01.416Z,20.93
2019-04-07T03:45:01.221Z,20.91
2019-04-07T03:46:01.213Z,20.91
2019-04-07T03:47:01.533Z,20.87
2019-04-07T03:48:02.166Z,20.86
2019-04-07T03:49:02.002Z,20.78
2019-04-07T03:50:01.544Z,20.94
2019-04-07T03:51:01.504Z,20.93
2019-04-07T03:52:01.996Z,20.83
2019-04-07T03:53:01.720Z,20.88
2019-04-07T03:54:01.175Z,20.87
2019-04-07T03:55:01.377Z,20.94
2019-04-07T03:56:01.853Z,20.81
2019-04-07T03:57:01.154Z,20.91
2019-04-07T03:58:01.664Z,20.88
2019-04-07T03:59:01.147Z,20.87
2019-04-07T04:00:02.210Z,20.86
2019-04-07T04:01:01.153Z,20.88
2019-04-07T04:02:01.154Z,20.90
2019-04-07T04:03:01.149Z,20.84
2019-04-07T04:04:02.205Z,20.83
2019-04-07T04:05:01.139Z,20.76
2019-04-07T04:06:01.132Z,20.90
2019-04-07T04:07:16.424Z,20.79
2019-04-07T04:08:28.914Z,20.79
2019-04-07T04:09:28.844Z,20.83
2019-04-07T04:10:28.989Z,20.84
2019-04-07T04:11:28.822Z,20.79
2019-04-07T04:12:29.764Z,20.86
2019-04-07T04:13:29.164Z,20.90
2019-04-07T04:14:29.540Z,20.75
2019-04-07T04:15:29.751Z,20.87
2019-04-07T04:16:28.812Z,20.91
2019-04-07T04:17:28.798Z,20.83
2019-04-07T04:18:28.803Z,20.90
2019-04-07T04:19:28.869Z,20.79
2019-04-07T04:20:28.800Z,20.75
2019-04-07T04:21:28.972Z,20.79
2019-04-07T04:22:29.240Z,20.88
2019-04-07T04:23:28.775Z,20.75
2019-04-07T04:24:28.797Z,20.86
2019-04-07T04:25:28.766Z,20.75
2019-04-07T04:26:29.099Z,20.84
2019-04-07T04:27:28.752Z,20.79
2019-04-07T04:28:29.146Z,20.73
2019-04-07T04:29:29.798Z,20.83
2019-04-07T04:30:29.839Z,20.76
2019-04-07T04:31:29.390Z,20.78
2019-04-07T04:32:28.841Z,20.79
2019-04-07T04:33:29.566Z,20.79
2019-04-07T04:34:28.732Z,20.78
2019-04-07T04:35:28.729Z,20.84
2019-04-07T04:36:29.424Z,20.84
2019-04-07T04:37:40.208Z,20.79
2019-04-07T04:38:56.432Z,20.93
2019-04-07T04:39:57.289Z,20.79
2019-04-07T04:40:56.941Z,20.79
2019-04-07T04:41:56.413Z,20.78
2019-04-07T04:42:56.904Z,20.81
2019-04-07T04:43:56.612Z,20.76
2019-04-07T04:44:56.391Z,20.79
2019-04-07T04:45:56.812Z,20.86
2019-04-07T04:46:56.381Z,20.72
2019-04-07T04:47:56.372Z,20.72
2019-04-07T04:48:56.700Z,20.83
2019-04-07T04:49:56.359Z,20.76
2019-04-07T04:50:56.353Z,20.76
2019-04-07T04:51:57.146Z,20.76
2019-04-07T04:52:56.505Z,20.83
2019-04-07T04:53:56.564Z,20.81
2019-04-07T04:54:57.093Z,20.81
2019-04-07T04:55:56.322Z,20.76
2019-04-07T04:56:56.936Z,20.78
2019-04-07T04:57:56.590Z,20.83
2019-04-07T04:58:56.630Z,20.73
2019-04-07T04:59:56.295Z,20.72
2019-04-07T05:00:56.515Z,20.79
2019-04-07T05:01:56.490Z,20.81
2019-04-07T05:02:57.018Z,20.83
2019-04-07T05:03:56.267Z,20.84
2019-04-07T05:04:56.262Z,20.88
2019-04-07T05:05:56.407Z,20.91
2019-04-07T05:06:57.060Z,20.87
2019-04-07T05:08:02.537Z,20.86
2019-04-07T05:08:58.237Z,20.94
2019-04-07T05:09:56.774Z,20.84
2019-04-07T05:10:56.547Z,20.88
2019-04-07T05:11:56.512Z,20.91
2019-04-07T05:12:56.213Z,20.90
2019-04-07T05:13:56.207Z,20.97
2019-04-07T05:14:56.199Z,20.94
2019-04-07T05:15:56.189Z,21.02
2019-04-07T05:16:56.191Z,20.96
2019-04-07T05:17:56.187Z,21.08
2019-04-07T05:18:56.174Z,21.08
2019-04-07T05:19:56.596Z,21.03
2019-04-07T05:20:56.340Z,21.08
2019-04-07T05:21:56.163Z,21.06
2019-04-07T05:22:56.156Z,21.19
2019-04-07T05:23:56.169Z,21.12
2019-04-07T05:24:56.679Z,21.22
2019-04-07T05:25:56.156Z,21.22
2019-04-07T05:26:56.153Z,21.19
2019-04-07T05:27:57.008Z,21.31
2019-04-07T05:28:56.139Z,21.15
2019-04-07T05:29:56.718Z,21.19
2019-04-07T05:30:56.878Z,21.24
2019-04-07T05:31:56.638Z,21.25
2019-04-07T05:32:56.842Z,21.25
2019-04-07T05:33:56.572Z,21.35
2019-04-07T05:34:56.710Z,21.31
2019-04-07T05:35:56.088Z,21.27
2019-04-07T05:36:56.192Z,21.31
2019-04-07T05:38:02.812Z,21.35
2019-04-07T05:39:24.131Z,21.38
2019-04-07T05:40:24.502Z,21.50
2019-04-07T05:41:23.786Z,21.43
2019-04-07T05:42:23.785Z,21.46
2019-04-07T05:43:23.775Z,21.49
2019-04-07T05:44:24.436Z,21.50
2019-04-07T05:45:23.847Z,21.50
2019-04-07T05:46:23.843Z,21.61
2019-04-07T05:47:23.787Z,21.56
2019-04-07T05:48:23.841Z,21.56
2019-04-07T05:49:24.268Z,21.64
2019-04-07T05:50:26.750Z,21.65
2019-04-07T05:51:23.742Z,21.71
2019-04-07T05:52:23.967Z,21.62
2019-04-07T05:53:24.377Z,21.75
2019-04-07T05:54:24.044Z,21.72
2019-04-07T05:55:24.400Z,21.79
2019-04-07T05:56:28.086Z,21.87
2019-04-07T05:57:24.039Z,21.89
2019-04-07T05:58:24.187Z,21.86
2019-04-07T05:59:23.694Z,21.90
2019-04-07T06:00:23.688Z,21.91
2019-04-07T06:01:24.593Z,22.01
2019-04-07T06:02:24.428Z,21.98
2019-04-07T06:03:23.667Z,21.95
2019-04-07T06:04:23.661Z,21.99
2019-04-07T06:05:24.427Z,21.95
2019-04-07T06:06:23.669Z,21.98
2019-04-07T06:07:28.778Z,22.08
2019-04-07T06:08:51.849Z,22.19
2019-04-07T06:09:52.764Z,22.20
2019-04-07T06:10:51.368Z,22.21
2019-04-07T06:11:51.374Z,22.19
2019-04-07T06:12:51.397Z,22.26
2019-04-07T06:13:51.937Z,22.19
2019-04-07T06:14:51.914Z,22.23
2019-04-07T06:15:52.276Z,22.27
2019-04-07T06:16:53.601Z,22.39
2019-04-07T06:17:51.329Z,22.41
2019-04-07T06:18:51.322Z,22.42
2019-04-07T06:19:52.472Z,22.46
2019-04-07T06:20:52.004Z,22.44
2019-04-07T06:21:51.653Z,22.48
2019-04-07T06:22:53.590Z,22.54
2019-04-07T06:23:55.297Z,22.60
2019-04-07T06:25:19.010Z,22.60
2019-04-07T06:26:19.663Z,22.60
2019-04-07T06:27:19.001Z,22.67
2019-04-07T06:28:19.302Z,22.57
2019-04-07T06:29:19.878Z,22.68
2019-04-07T06:30:19.120Z,22.73
2019-04-07T06:31:19.618Z,22.68
2019-04-07T06:32:19.277Z,22.70
2019-04-07T06:33:18.964Z,22.83
2019-04-07T06:34:18.961Z,22.95
2019-04-07T06:35:19.274Z,22.83
2019-04-07T06:36:20.289Z,22.79
2019-04-07T06:37:18.952Z,22.90
2019-04-07T06:38:30.307Z,23.01
2019-04-07T06:39:50.078Z,22.88
2019-04-07T06:40:46.669Z,22.97
2019-04-07T06:41:46.660Z,23.05
2019-04-07T06:42:46.651Z,23.01
2019-04-07T06:43:46.803Z,23.02
2019-04-07T06:44:50.072Z,23.05
2019-04-07T06:45:46.631Z,23.13
2019-04-07T06:46:46.958Z,23.19
2019-04-07T06:47:46.616Z,23.16
2019-04-07T06:48:47.118Z,23.15
2019-04-07T06:49:47.461Z,23.30
2019-04-07T06:50:50.216Z,23.25
2019-04-07T06:52:14.690Z,23.23
2019-04-07T06:53:17.841Z,23.31
2019-04-07T06:54:18.434Z,23.31
2019-04-07T06:55:42.741Z,23.27
2019-04-07T06:56:42.038Z,23.30
2019-04-07T06:57:42.663Z,23.38
2019-04-07T06:58:42.890Z,23.34
2019-04-07T06:59:45.698Z,23.41
2019-04-07T07:00:42.013Z,23.53
2019-04-07T07:01:42.735Z,23.37
2019-04-07T07:02:43.800Z,23.52
2019-04-07T07:03:42.121Z,23.42
2019-04-07T07:04:44.033Z,23.49
2019-04-07T07:05:45.508Z,23.52
2019-04-07T07:06:42.219Z,23.57
2019-04-07T07:07:42.543Z,23.50
2019-04-07T07:08:45.969Z,23.57
2019-04-07T07:09:42.643Z,23.53
2019-04-07T07:10:42.929Z,23.59
2019-04-07T07:11:43.996Z,23.59
2019-04-07T07:12:42.178Z,23.59
2019-04-07T07:13:44.479Z,23.62
2019-04-07T07:14:45.013Z,23.67
2019-04-07T07:15:42.694Z,23.65
2019-04-07T07:16:44.409Z,23.60
2019-04-07T07:17:42.238Z,23.60
2019-04-07T07:18:41.944Z,23.67
2019-04-07T07:19:42.288Z,23.71
2019-04-07T07:20:42.648Z,23.74
2019-04-07T07:21:42.653Z,23.74
2019-04-07T07:22:44.507Z,23.79
2019-04-07T07:23:47.128Z,23.78
2019-04-07T07:25:11.871Z,23.77
2019-04-07T07:26:09.848Z,23.82
2019-04-07T07:27:11.302Z,23.90
2019-04-07T07:28:11.525Z,23.93
2019-04-07T07:29:13.232Z,23.90
2019-04-07T07:30:09.772Z,23.78
2019-04-07T07:31:10.032Z,23.87
2019-04-07T07:32:09.696Z,23.92
2019-04-07T07:33:11.121Z,23.97
2019-04-07T07:34:11.058Z,23.90
2019-04-07T07:35:12.702Z,23.94
2019-04-07T07:36:09.616Z,23.93
2019-04-07T07:37:09.599Z,24.05
2019-04-07T07:38:10.133Z,23.96
2019-04-07T07:39:12.293Z,23.96
2019-04-07T07:40:10.029Z,23.99
2019-04-07T07:41:09.939Z,24.03
2019-04-07T07:42:09.550Z,24.12
2019-04-07T07:43:09.784Z,24.06
2019-04-07T07:44:09.815Z,24.10
2019-04-07T07:45:12.959Z,24.15
2019-04-07T07:46:09.524Z,24.20
2019-04-07T07:47:10.261Z,24.18
2019-04-07T07:48:09.906Z,24.21
2019-04-07T07:49:09.514Z,24.24
2019-04-07T07:50:10.223Z,24.27
2019-04-07T07:51:12.888Z,24.30
2019-04-07T07:52:09.484Z,24.34
2019-04-07T07:53:10.349Z,24.37
2019-04-07T07:54:09.961Z,24.27
2019-04-07T07:55:09.896Z,24.39
2019-04-07T07:56:12.900Z,24.40
2019-04-07T07:57:09.519Z,24.47
2019-04-07T07:58:09.450Z,24.47
2019-04-07T07:59:09.443Z,24.57
2019-04-07T08:00:10.243Z,24.71
2019-04-07T08:01:12.351Z,24.76
2019-04-07T08:02:09.803Z,24.90
2019-04-07T08:03:10.294Z,25.13
2019-04-07T08:04:09.773Z,25.27
2019-04-07T08:05:09.422Z,25.39
2019-04-07T08:06:09.667Z,25.52
2019-04-07T08:07:13.441Z,25.88
2019-04-07T08:08:09.406Z,26.02
2019-04-07T08:09:13.671Z,26.38
2019-04-07T08:10:11.387Z,26.64
2019-04-07T08:11:09.998Z,26.97
2019-04-07T08:12:09.610Z,27.37
2019-04-07T08:13:09.370Z,27.77
2019-04-07T08:14:09.995Z,28.02
2019-04-07T08:15:09.361Z,28.39
2019-04-07T08:16:09.791Z,28.73
2019-04-07T08:17:09.445Z,29.05
2019-04-07T08:18:09.708Z,29.47
2019-04-07T08:19:10.043Z,29.85
2019-04-07T08:20:11.369Z,30.13
2019-04-07T08:21:12.230Z,30.44
2019-04-07T08:22:09.316Z,30.69
2019-04-07T08:23:11.789Z,31.00
2019-04-07T08:24:10.128Z,31.23
2019-04-07T08:25:09.735Z,31.46
2019-04-07T08:26:09.465Z,31.68
2019-04-07T08:27:09.288Z,31.92
2019-04-07T08:28:09.353Z,32.18
2019-04-07T08:29:11.998Z,32.42
2019-04-07T08:30:11.782Z,32.65
2019-04-07T08:31:09.872Z,32.92
2019-04-07T08:32:09.256Z,33.18
2019-04-07T08:33:09.395Z,33.31
2019-04-07T08:34:09.905Z,33.56
2019-04-07T08:35:09.898Z,33.74
2019-04-07T08:36:12.208Z,33.85
2019-04-07T08:37:09.512Z,34.03
2019-04-07T08:38:09.837Z,34.27
2019-04-07T08:39:20.288Z,34.35
2019-04-07T08:41:39.724Z,34.76
2019-04-07T08:42:37.089Z,34.87
2019-04-07T08:44:04.638Z,35.02
2019-04-07T08:45:04.671Z,35.06
2019-04-07T08:46:05.896Z,35.20
2019-04-07T08:47:04.621Z,35.37
2019-04-07T08:48:05.227Z,35.41
2019-04-07T08:49:04.749Z,35.36
2019-04-07T08:50:04.604Z,35.55
2019-04-07T08:51:04.736Z,35.45
2019-04-07T08:52:08.787Z,35.59
2019-04-07T08:53:04.709Z,35.77
2019-04-07T08:54:05.794Z,35.77
2019-04-07T08:55:05.043Z,35.74
2019-04-07T08:56:06.845Z,35.77
2019-04-07T08:57:04.695Z,35.75
2019-04-07T08:58:05.680Z,35.81
2019-04-07T08:59:07.895Z,35.85
2019-04-07T09:00:05.119Z,35.80
2019-04-07T09:01:05.298Z,35.80
2019-04-07T09:02:05.404Z,35.77
2019-04-07T09:03:10.554Z,35.65
2019-04-07T09:04:32.248Z,35.65
2019-04-07T09:05:32.244Z,35.41
2019-04-07T09:06:33.107Z,35.24
2019-04-07T09:07:33.393Z,35.01
2019-04-07T09:08:34.701Z,34.71
2019-04-07T09:09:35.955Z,34.39
2019-04-07T09:10:33.538Z,34.08
2019-04-07T09:11:32.279Z,33.77
2019-04-07T09:12:32.280Z,33.23
2019-04-07T09:13:34.081Z,32.84
2019-04-07T09:14:32.185Z,32.46
2019-04-07T09:15:32.863Z,32.14
2019-04-07T09:16:32.171Z,31.76
2019-04-07T09:17:39.898Z,31.44
2019-04-07T09:19:03.799Z,31.16
2019-04-07T09:20:27.607Z,30.52
2019-04-07T09:21:37.235Z,30.16
2019-04-07T09:22:57.010Z,29.76
2019-04-07T09:23:56.545Z,29.47
2019-04-07T09:24:55.324Z,29.32
2019-04-07T09:25:56.197Z,29.10
2019-04-07T09:26:55.599Z,28.98
2019-04-07T09:27:55.814Z,28.92
2019-04-07T09:28:55.888Z,28.90
2019-04-07T09:29:57.673Z,28.83
2019-04-07T09:30:55.276Z,28.99
2019-04-07T09:31:55.271Z,29.04
2019-04-07T09:32:55.826Z,29.26
2019-04-07T09:33:56.097Z,29.60
2019-04-07T09:34:56.134Z,29.82
2019-04-07T09:35:58.858Z,30.34
2019-04-07T09:36:55.680Z,30.69
2019-04-07T09:39:00.041Z,31.69
2019-04-07T09:40:23.553Z,32.34
2019-04-07T09:41:27.275Z,32.74
2019-04-07T09:42:25.711Z,33.22
2019-04-07T09:43:22.935Z,33.65
2019-04-07T09:44:22.924Z,33.94
2019-04-07T09:45:22.918Z,34.40
2019-04-07T09:46:22.997Z,34.77
2019-04-07T09:47:23.692Z,35.03
2019-04-07T09:48:23.817Z,35.25
2019-04-07T09:49:23.831Z,35.47
2019-04-07T09:50:26.791Z,35.80
2019-04-07T09:51:22.898Z,35.97
2019-04-07T09:52:23.381Z,36.15
2019-04-07T09:53:23.051Z,36.40
2019-04-07T09:54:23.374Z,36.56
2019-04-07T09:55:25.768Z,36.63
2019-04-07T09:56:22.869Z,36.80
2019-04-07T09:57:23.563Z,36.93
2019-04-07T09:58:22.858Z,37.12
2019-04-07T09:59:22.932Z,37.15
2019-04-07T10:00:57.696Z,37.03
2019-04-07T10:01:25.290Z,37.22
2019-04-07T10:02:22.844Z,37.27
2019-04-07T10:03:23.240Z,37.24
2019-04-07T10:04:22.830Z,37.37
2019-04-07T10:05:22.828Z,37.39
2019-04-07T10:06:22.815Z,37.39
2019-04-07T10:07:22.976Z,37.44
2019-04-07T10:08:22.806Z,37.55
2019-04-07T10:09:23.015Z,37.47
2019-04-07T10:10:22.796Z,37.50
2019-04-07T10:11:22.791Z,37.43
2019-04-07T10:12:23.242Z,37.51
2019-04-07T10:13:22.844Z,37.55
2019-04-07T10:14:22.969Z,37.46
2019-04-07T10:15:22.817Z,37.51
2019-04-07T10:16:22.760Z,37.56
2019-04-07T10:17:23.245Z,37.63
2019-04-07T10:18:22.941Z,37.69
2019-04-07T10:19:22.744Z,37.58
2019-04-07T10:20:23.956Z,37.59
2019-04-07T10:21:22.734Z,37.63
2019-04-07T10:22:22.729Z,37.65
2019-04-07T10:23:23.168Z,37.44
2019-04-07T10:24:23.502Z,37.27
2019-04-07T10:25:25.148Z,36.84
2019-04-07T10:26:22.707Z,36.11
2019-04-07T10:27:22.740Z,35.02
2019-04-07T10:28:23.386Z,34.22
2019-04-07T10:29:23.067Z,33.58
2019-04-07T10:30:22.679Z,32.97
2019-04-07T10:31:22.673Z,32.34
2019-04-07T10:32:24.739Z,31.70
2019-04-07T10:33:22.660Z,31.19
2019-04-07T10:34:22.658Z,30.75
2019-04-07T10:35:22.651Z,30.27
2019-04-07T10:36:22.855Z,29.92
2019-04-07T10:37:22.636Z,29.52
2019-04-07T10:38:22.627Z,29.22
2019-04-07T10:39:22.977Z,29.03
2019-04-07T10:40:23.342Z,28.77
2019-04-07T10:41:22.838Z,28.64
2019-04-07T10:42:22.605Z,28.55
2019-04-07T10:43:22.878Z,28.55
2019-04-07T10:45:22.904Z,28.30
2019-04-07T10:46:22.693Z,28.14
2019-04-07T10:47:23.440Z,28.03
2019-04-07T10:48:24.521Z,27.89
2019-04-07T10:49:22.744Z,27.89
2019-04-07T10:50:22.577Z,27.61
2019-04-07T10:51:23.014Z,27.54
2019-04-07T10:52:22.549Z,27.44
2019-04-07T10:54:23.353Z,27.17
2019-04-07T10:55:22.532Z,27.13
2019-04-07T10:56:22.526Z,27.03
2019-04-07T10:57:23.142Z,27.06
2019-04-07T10:58:23.029Z,26.95
2019-04-07T10:59:22.504Z,26.94
2019-04-07T11:00:22.497Z,26.91
2019-04-07T11:01:22.490Z,26.79
2019-04-07T11:02:22.656Z,26.75
2019-04-07T11:03:23.000Z,26.72
2019-04-07T11:04:23.026Z,26.72
2019-04-07T11:05:22.856Z,26.59
2019-04-07T11:06:22.735Z,26.64
2019-04-07T11:07:22.453Z,26.57
2019-04-07T11:08:23.243Z,26.46
2019-04-07T11:09:22.438Z,26.47
2019-04-07T11:10:32.884Z,26.42
2019-04-07T11:11:49.652Z,26.38
2019-04-07T11:12:49.654Z,26.42
2019-04-07T11:13:49.998Z,26.39
2019-04-07T11:14:50.141Z,26.29
2019-04-07T11:15:49.835Z,26.35
2019-04-07T11:16:49.914Z,26.35
2019-04-07T11:17:50.303Z,26.22
2019-04-07T11:18:50.358Z,26.17
2019-04-07T11:19:50.080Z,26.22
2019-04-07T11:20:49.601Z,26.19
2019-04-07T11:21:50.272Z,26.19
2019-04-07T11:22:50.128Z,26.13
2019-04-07T11:23:49.580Z,26.13
2019-04-07T11:24:49.634Z,26.09
2019-04-07T11:25:49.567Z,26.06
2019-04-07T11:28:17.757Z,26.14
2019-04-07T11:29:16.777Z,26.01
2019-04-07T11:30:16.959Z,26.09
2019-04-07T11:31:16.893Z,26.05
2019-04-07T11:32:17.578Z,25.98
2019-04-07T11:33:16.751Z,25.98
2019-04-07T11:34:17.510Z,25.97
2019-04-07T11:35:17.074Z,25.94
2019-04-07T11:36:20.086Z,25.95
2019-04-07T11:37:16.723Z,25.92
2019-04-07T11:38:16.859Z,25.90
2019-04-07T11:39:16.714Z,25.91
2019-04-07T11:40:17.208Z,25.90
2019-04-07T11:41:17.028Z,25.87
2019-04-07T11:42:17.045Z,25.88
2019-04-07T11:43:16.682Z,25.79
2019-04-07T11:44:19.228Z,25.83
2019-04-07T11:45:16.685Z,25.76
2019-04-07T11:46:44.248Z,25.72
2019-04-07T11:47:43.905Z,25.69
2019-04-07T11:48:44.873Z,25.67
2019-04-07T11:49:44.999Z,25.69
2019-04-07T11:50:43.885Z,25.65
2019-04-07T11:51:44.259Z,25.60
2019-04-07T11:52:43.870Z,25.50
2019-04-07T11:53:44.270Z,25.52
2019-04-07T11:54:43.904Z,25.54
2019-04-07T11:55:44.257Z,25.57
2019-04-07T11:56:43.846Z,25.51
2019-04-07T11:57:45.269Z,25.50
2019-04-07T11:58:44.082Z,25.54
2019-04-07T11:59:44.717Z,25.52
2019-04-07T12:00:43.830Z,25.54
2019-04-07T12:01:46.817Z,25.42
2019-04-07T12:02:44.626Z,25.37
2019-04-07T12:03:44.013Z,25.35
2019-04-07T12:04:43.911Z,25.37
2019-04-07T12:05:44.177Z,25.38
2019-04-07T12:06:46.681Z,25.27
2019-04-07T12:07:44.588Z,25.24
2019-04-07T12:08:44.521Z,25.31
2019-04-07T12:09:43.790Z,25.29
2019-04-07T12:10:54.830Z,25.24
2019-04-07T12:12:11.510Z,25.34
2019-04-07T12:13:10.996Z,25.24
2019-04-07T12:14:15.025Z,25.26
2019-04-07T12:15:11.974Z,25.23
2019-04-07T12:16:10.977Z,25.14
2019-04-07T12:17:12.556Z,25.13
2019-04-07T12:18:14.966Z,25.14
2019-04-07T12:19:38.753Z,25.08
2019-04-07T12:20:38.204Z,25.07
2019-04-07T12:21:39.297Z,25.12
2019-04-07T12:22:39.179Z,25.02
2019-04-07T12:23:38.308Z,24.97
2019-04-07T12:24:39.223Z,24.99
2019-04-07T12:25:38.440Z,24.98
2019-04-07T12:26:41.935Z,25.01
2019-04-07T12:27:40.633Z,24.92
2019-04-07T12:29:05.873Z,24.92
2019-04-07T12:30:05.511Z,24.90
2019-04-07T12:31:05.459Z,24.84
2019-04-07T12:32:05.361Z,24.83
2019-04-07T12:33:07.855Z,24.83
2019-04-07T12:34:09.563Z,24.83
2019-04-07T12:35:33.758Z,24.86
2019-04-07T12:36:33.315Z,24.72
2019-04-07T12:37:35.000Z,24.79
2019-04-07T12:38:32.751Z,24.75
2019-04-07T12:39:34.184Z,24.72
2019-04-07T12:40:32.745Z,24.65
2019-04-07T12:41:33.064Z,24.62
2019-04-07T12:42:33.287Z,24.72
2019-04-07T12:43:32.822Z,24.69
2019-04-07T12:44:33.242Z,24.69
2019-04-07T12:45:34.758Z,24.71
2019-04-07T12:46:33.257Z,24.72
2019-04-07T12:47:32.709Z,24.69
2019-04-07T12:48:32.716Z,24.68
2019-04-07T12:49:34.359Z,24.57
2019-04-07T12:50:32.867Z,24.60
2019-04-07T12:51:32.881Z,24.50
2019-04-07T12:52:33.479Z,24.67
2019-04-07T12:53:35.332Z,24.55
2019-04-07T12:54:33.091Z,24.62
2019-04-07T12:55:32.652Z,24.62
2019-04-07T12:56:34.253Z,24.57
2019-04-07T12:57:35.346Z,24.60
2019-04-07T12:58:32.668Z,24.55
2019-04-07T12:59:32.647Z,24.49
2019-04-07T13:00:39.100Z,24.47
2019-04-07T13:01:34.635Z,24.47
2019-04-07T13:02:32.628Z,24.50
2019-04-07T13:03:33.245Z,24.42
2019-04-07T13:04:32.620Z,24.42
2019-04-07T13:05:35.478Z,24.47
2019-04-07T13:06:33.295Z,24.45
2019-04-07T13:07:32.597Z,24.40
2019-04-07T13:08:32.589Z,24.46